Time;durP1;ratioP1;P1;durP2;ratioP2;P2;SDS_P1;SDS_P2;PMS_P1;PMS_P2;Temp;Humidity;BMP_temperature;BMP_pressure;BME280_temperature;BME280_humidity;BME280_pressure;Samples;Min_cycle;Max_cycle;Signal;HPM_P1;HPM_P2
2023/12/28 00:01:21;;;;;;;5.65;3.58;;;12.90;99.90;;;;;;5040330;28;20037;-75
2023/12/28 00:03:47;;;;;;;4.13;3.75;;;13.10;99.90;;;;;;5025917;28;20037;-74
2023/12/28 00:06:12;;;;;;;5.25;4.05;;;12.70;99.90;;;;;;5044041;28;20476;-75
2023/12/28 00:08:38;;;;;;;6.13;3.95;;;13.30;99.90;;;;;;5042895;28;20047;-74
2023/12/28 00:11:04;;;;;;;6.10;4.13;;;13.10;99.90;;;;;;5042356;28;20102;-72
2023/12/28 00:13:29;;;;;;;7.63;4.07;;;13.30;99.90;;;;;;5072681;28;20045;-77
2023/12/28 00:15:55;;;;;;;7.20;4.15;;;13.20;99.90;;;;;;5024000;28;20055;-71
2023/12/28 00:18:21;;;;;;;6.25;4.40;;;12.90;99.90;;;;;;5040836;28;20537;-74
2023/12/28 00:20:46;;;;;;;6.38;4.10;;;12.90;99.90;;;;;;5028161;28;20048;-75
2023/12/28 00:23:12;;;;;;;5.43;4.20;;;12.70;99.90;;;;;;5050131;28;20045;-73
2023/12/28 00:25:38;;;;;;;5.50;4.15;;;12.90;99.90;;;;;;5010530;28;20600;-74
2023/12/28 00:28:04;;;;;;;5.35;4.55;;;12.90;99.90;;;;;;5025369;28;20358;-74
2023/12/28 00:30:29;;;;;;;7.10;4.70;;;13.00;99.90;;;;;;5053667;28;20082;-72
2023/12/28 00:32:55;;;;;;;5.82;4.40;;;13.00;99.90;;;;;;5039646;28;20425;-73
2023/12/28 00:35:21;;;;;;;5.65;4.22;;;13.20;99.90;;;;;;5027607;28;20194;-73
2023/12/28 00:37:46;;;;;;;4.55;3.88;;;13.60;99.90;;;;;;5076140;28;20044;-74
2023/12/28 00:40:12;;;;;;;5.28;4.10;;;13.50;99.90;;;;;;5045842;28;20479;-74
2023/12/28 00:42:40;;;;;;;5.43;4.35;;;13.60;99.90;;;;;;5043384;28;20052;-73
2023/12/28 00:45:07;;;;;;;7.15;4.50;;;13.30;99.90;;;;;;5041073;28;20044;-73
2023/12/28 00:47:33;;;;;;;6.65;4.20;;;12.90;99.90;;;;;;5072479;28;20501;-74
2023/12/28 00:49:58;;;;;;;6.35;4.43;;;13.10;99.90;;;;;;5041855;28;20045;-72
2023/12/28 00:52:24;;;;;;;5.10;4.15;;;13.60;99.90;;;;;;5040355;28;20521;-74
2023/12/28 00:54:50;;;;;;;4.93;3.88;;;12.90;99.90;;;;;;5039899;28;20048;-73
2023/12/28 00:57:15;;;;;;;5.13;3.88;;;12.90;99.90;;;;;;5041649;28;20028;-71
2023/12/28 00:59:41;;;;;;;6.20;4.28;;;12.90;99.90;;;;;;5038282;28;20416;-76
2023/12/28 01:02:07;;;;;;;6.70;4.30;;;13.00;99.90;;;;;;5041260;28;20052;-73
2023/12/28 01:04:33;;;;;;;5.32;3.90;;;13.30;99.90;;;;;;5041438;28;20049;-75
2023/12/28 01:07:01;;;;;;;7.38;4.15;;;13.50;99.90;;;;;;5023840;28;21289;-74
2023/12/28 01:09:27;;;;;;;8.40;4.00;;;13.10;99.90;;;;;;5024150;28;20033;-73
2023/12/28 01:11:53;;;;;;;7.28;4.20;;;13.20;99.90;;;;;;5042782;28;20065;-74
2023/12/28 01:14:19;;;;;;;7.97;4.22;;;13.00;99.90;;;;;;5040248;28;20052;-73
2023/12/28 01:16:45;;;;;;;8.75;4.07;;;12.90;99.90;;;;;;5042438;28;20465;-74
2023/12/28 01:19:10;;;;;;;8.07;4.32;;;13.50;99.90;;;;;;5021905;28;20041;-72
2023/12/28 01:21:36;;;;;;;6.75;4.20;;;13.50;99.90;;;;;;5072946;28;20044;-73
2023/12/28 01:24:02;;;;;;;11.80;4.68;;;13.60;99.90;;;;;;5026523;28;20045;-73
2023/12/28 01:26:28;;;;;;;7.28;4.00;;;13.20;99.90;;;;;;5039435;28;20048;-72
2023/12/28 01:28:54;;;;;;;7.22;4.40;;;13.40;99.90;;;;;;5040866;28;20045;-74
2023/12/28 01:31:19;;;;;;;11.45;4.60;;;12.90;99.90;;;;;;5048825;28;20068;-74
2023/12/28 01:33:45;;;;;;;8.63;4.20;;;12.80;99.90;;;;;;5039678;28;20334;-73
2023/12/28 01:36:19;;;;;;;8.23;4.55;;;12.80;99.90;;;;;;5039977;28;20040;-72
2023/12/28 01:38:45;;;;;;;7.88;4.47;;;13.60;99.90;;;;;;5048790;28;20466;-75
2023/12/28 01:41:12;;;;;;;7.47;4.32;;;13.10;99.90;;;;;;5070943;28;20048;-77
2023/12/28 01:43:38;;;;;;;7.63;4.32;;;13.60;99.90;;;;;;5054973;28;20041;-71
2023/12/28 01:46:15;;;;;;;8.75;4.60;;;13.60;99.90;;;;;;5039764;28;20164;-73
2023/12/28 01:48:42;;;;;;;8.38;4.22;;;13.40;99.90;;;;;;5040307;28;20037;-74
2023/12/28 01:51:08;;;;;;;10.75;5.03;;;12.80;99.90;;;;;;5073349;28;20045;-74
2023/12/28 01:53:33;;;;;;;8.35;4.22;;;13.10;99.90;;;;;;5046272;28;20079;-75
2023/12/28 01:56:00;;;;;;;10.40;4.38;;;13.10;99.90;;;;;;5045994;28;20033;-73
2023/12/28 01:58:28;;;;;;;10.18;4.32;;;13.50;99.90;;;;;;5024459;28;20045;-73
2023/12/28 02:00:56;;;;;;;10.75;4.55;;;13.40;99.90;;;;;;5023834;28;20039;-73
2023/12/28 02:03:22;;;;;;;9.25;4.10;;;13.30;99.90;;;;;;5039109;28;20073;-76
2023/12/28 02:05:47;;;;;;;9.68;4.32;;;13.40;99.90;;;;;;5041463;28;20129;-74
2023/12/28 02:08:13;;;;;;;7.68;3.90;;;13.50;99.90;;;;;;5028240;28;20049;-71
2023/12/28 02:10:39;;;;;;;6.40;4.00;;;13.50;99.90;;;;;;5028217;28;20380;-74
2023/12/28 02:13:05;;;;;;;11.65;4.93;;;13.70;99.90;;;;;;5024218;28;20417;-76
2023/12/28 02:15:31;;;;;;;10.68;4.47;;;13.90;99.90;;;;;;5039311;28;20041;-73
2023/12/28 02:18:11;;;;;;;10.00;4.28;;;13.80;99.90;;;;;;5045422;28;20098;-73
2023/12/28 02:20:39;;;;;;;11.63;4.05;;;13.40;99.90;;;;;;5047268;28;20033;-73
2023/12/28 02:23:05;;;;;;;9.45;4.00;;;13.90;99.90;;;;;;5039332;28;20087;-73
2023/12/28 02:25:31;;;;;;;9.85;4.10;;;13.20;99.90;;;;;;5028046;28;20458;-74
2023/12/28 02:27:57;;;;;;;8.50;3.78;;;13.10;99.90;;;;;;5025048;28;20041;-72
2023/12/28 02:30:23;;;;;;;11.70;4.05;;;13.80;99.90;;;;;;5039183;28;20061;-75
2023/12/28 02:33:24;;;;;;;9.70;4.38;;;13.30;99.90;;;;;;5072519;28;20041;-71
2023/12/28 02:36:05;;;;;;;8.13;3.80;;;13.70;99.90;;;;;;5035773;28;20048;-75
2023/12/28 02:38:33;;;;;;;11.02;3.92;;;13.10;99.90;;;;;;5072723;28;20052;-71
2023/12/28 02:40:59;;;;;;;11.60;4.00;;;14.00;99.90;;;;;;5048725;28;20056;-73
2023/12/28 02:43:24;;;;;;;10.25;4.22;;;13.10;99.90;;;;;;5025296;28;20052;-71
2023/12/28 02:45:50;;;;;;;10.98;4.30;;;13.60;99.90;;;;;;5044911;28;20440;-76
2023/12/28 02:48:16;;;;;;;8.95;3.75;;;13.10;99.90;;;;;;5049352;28;20037;-72
2023/12/28 02:50:41;;;;;;;9.80;4.38;;;13.70;99.90;;;;;;5027364;28;20032;-75
2023/12/28 02:53:07;;;;;;;10.82;3.70;;;13.90;99.90;;;;;;5043378;28;20436;-72
2023/12/28 02:55:33;;;;;;;10.43;3.95;;;13.30;99.90;;;;;;5043289;28;20103;-72
2023/12/28 02:57:59;;;;;;;10.82;3.90;;;14.20;99.90;;;;;;5042597;28;20048;-72
2023/12/28 03:00:25;;;;;;;10.77;4.05;;;13.70;99.90;;;;;;5043921;28;20371;-73
2023/12/28 03:02:51;;;;;;;10.90;4.13;;;13.90;99.90;;;;;;5043701;28;20044;-76
2023/12/28 03:05:17;;;;;;;11.30;3.92;;;13.40;99.90;;;;;;5043347;28;20052;-70
2023/12/28 03:07:42;;;;;;;10.65;4.30;;;14.00;99.90;;;;;;5040241;28;22558;-72
2023/12/28 03:10:09;;;;;;;10.27;3.90;;;13.40;99.90;;;;;;5043663;28;20087;-73
2023/12/28 03:12:35;;;;;;;16.45;4.18;;;14.50;99.90;;;;;;5042384;28;20037;-73
2023/12/28 03:15:00;;;;;;;8.68;3.65;;;14.30;99.90;;;;;;5011791;28;20052;-72
2023/12/28 03:17:26;;;;;;;9.35;3.60;;;13.80;99.90;;;;;;5043650;28;20148;-73
2023/12/28 03:19:52;;;;;;;10.93;3.85;;;14.00;99.90;;;;;;5041659;28;20409;-73
2023/12/28 03:22:18;;;;;;;9.98;3.45;;;14.30;99.90;;;;;;5028995;28;20127;-75
2023/12/28 03:24:44;;;;;;;11.25;4.05;;;13.90;99.90;;;;;;5043977;28;20033;-70
2023/12/28 03:27:09;;;;;;;11.50;3.67;;;14.20;99.90;;;;;;5030441;28;20385;-72
2023/12/28 03:29:36;;;;;;;10.48;4.07;;;13.60;99.90;;;;;;5031280;28;20101;-74
2023/12/28 03:32:02;;;;;;;13.15;3.13;;;13.90;99.90;;;;;;5048947;28;20051;-76
2023/12/28 03:34:29;;;;;;;11.80;3.90;;;14.60;99.90;;;;;;5044389;28;20040;-72
2023/12/28 03:36:55;;;;;;;6.70;3.10;;;14.80;99.90;;;;;;5041375;28;20045;-70
2023/12/28 03:39:21;;;;;;;13.98;3.85;;;14.70;99.90;;;;;;5070861;28;20056;-75
2023/12/28 03:41:47;;;;;;;11.30;3.22;;;14.90;99.90;;;;;;5015642;28;20036;-72
2023/12/28 03:44:13;;;;;;;10.90;3.25;;;14.00;99.90;;;;;;5041639;28;20397;-71
2023/12/28 03:46:39;;;;;;;8.30;3.30;;;14.00;99.90;;;;;;5044794;28;20036;-73
2023/12/28 03:49:04;;;;;;;10.98;3.30;;;14.10;99.90;;;;;;5074957;28;22518;-77
2023/12/28 03:51:30;;;;;;;12.52;3.03;;;14.10;99.90;;;;;;5074017;28;20048;-75
2023/12/28 03:53:56;;;;;;;10.88;3.90;;;14.30;99.90;;;;;;5042302;28;20045;-73
2023/12/28 03:56:27;;;;;;;7.78;2.72;;;14.30;99.90;;;;;;5042843;28;20033;-76
2023/12/28 03:58:53;;;;;;;10.73;3.90;;;14.50;99.70;;;;;;5040289;28;20083;-74
2023/12/28 04:01:21;;;;;;;9.85;3.03;;;14.40;99.90;;;;;;5042058;28;20512;-73
2023/12/28 04:03:47;;;;;;;9.85;3.35;;;14.20;99.90;;;;;;5025859;28;20044;-75
2023/12/28 04:06:14;;;;;;;9.20;3.30;;;14.90;99.90;;;;;;5043719;28;20037;-74
2023/12/28 04:08:43;;;;;;;10.02;3.13;;;14.00;99.90;;;;;;5041265;28;20147;-74
2023/12/28 04:11:09;;;;;;;13.77;3.90;;;14.80;96.90;;;;;;5025371;28;20099;-74
2023/12/28 04:13:35;;;;;;;10.50;3.35;;;14.50;99.90;;;;;;5040864;28;20488;-73
2023/12/28 04:16:01;;;;;;;12.93;4.35;;;14.80;99.90;;;;;;5044180;28;20060;-73
2023/12/28 04:18:27;;;;;;;12.10;4.35;;;14.60;97.40;;;;;;5040916;28;20035;-75
2023/12/28 04:20:52;;;;;;;9.45;3.67;;;14.70;59.30;;;;;;5007468;28;20049;-72
2023/12/28 04:23:18;;;;;;;9.00;3.00;;;14.10;87.20;;;;;;5041361;28;20127;-73
2023/12/28 04:25:44;;;;;;;14.05;3.60;;;14.40;67.20;;;;;;5027167;28;20044;-73
2023/12/28 04:28:10;;;;;;;10.52;3.25;;;14.30;49.40;;;;;;5046168;28;20092;-74
2023/12/28 04:30:36;;;;;;;9.60;3.22;;;15.10;43.70;;;;;;5025425;28;20470;-73
2023/12/28 04:33:02;;;;;;;9.80;3.13;;;14.50;35.90;;;;;;5012758;28;20044;-73
2023/12/28 04:35:28;;;;;;;9.80;3.45;;;14.40;18.60;;;;;;5041943;28;20560;-76
2023/12/28 04:37:54;;;;;;;13.85;3.40;;;14.50;4.00;;;;;;5024931;28;20124;-71
2023/12/28 04:40:20;;;;;;;10.73;3.40;;;14.50;17.30;;;;;;5042591;28;20143;-72
2023/12/28 04:42:46;;;;;;;12.02;3.55;;;14.90;21.30;;;;;;5044488;28;20374;-73
2023/12/28 04:45:12;;;;;;;9.80;3.08;;;14.80;3.00;;;;;;5074060;28;20078;-71
2023/12/28 04:47:37;;;;;;;12.65;3.83;;;14.90;1.00;;;;;;5025037;28;20072;-76
2023/12/28 04:50:04;;;;;;;11.88;3.90;;;14.60;30.70;;;;;;5029824;28;20124;-76
2023/12/28 04:52:30;;;;;;;13.13;3.35;;;14.50;42.10;;;;;;5025050;28;20075;-75
2023/12/28 04:54:56;;;;;;;11.20;3.45;;;14.40;25.00;;;;;;5043436;28;20040;-76
2023/12/28 04:57:24;;;;;;;10.90;3.22;;;14.50;18.60;;;;;;5070458;28;20493;-75
2023/12/28 04:59:50;;;;;;;10.93;3.63;;;14.50;1.00;;;;;;5039766;28;20045;-73
2023/12/28 05:02:16;;;;;;;10.18;3.42;;;14.80;1.00;;;;;;5046654;28;20098;-74
2023/12/28 05:04:42;;;;;;;9.93;3.58;;;14.80;1.00;;;;;;5026775;28;20083;-73
2023/12/28 05:07:07;;;;;;;9.30;3.08;;;14.90;1.00;;;;;;5038355;28;20055;-75
2023/12/28 05:09:33;;;;;;;13.25;3.88;;;14.70;1.00;;;;;;5041367;28;20037;-74
2023/12/28 05:11:59;;;;;;;16.30;3.55;;;14.80;1.00;;;;;;5048273;28;20033;-75
2023/12/28 05:14:24;;;;;;;10.55;2.80;;;15.30;1.00;;;;;;5025326;28;20187;-73
2023/12/28 05:16:50;;;;;;;12.90;3.88;;;15.20;1.00;;;;;;5024922;28;20053;-72
2023/12/28 05:19:16;;;;;;;10.52;3.35;;;15.00;1.00;;;;;;5040848;28;20041;-76
2023/12/28 05:21:41;;;;;;;9.90;3.05;;;15.20;1.00;;;;;;5026335;28;20036;-73
2023/12/28 05:24:07;;;;;;;11.82;3.58;;;15.20;1.00;;;;;;5027437;28;20037;-74
2023/12/28 05:26:33;;;;;;;12.30;3.40;;;15.40;1.00;;;;;;5031924;28;20041;-75
2023/12/28 05:28:59;;;;;;;12.32;3.15;;;14.50;1.00;;;;;;5041695;28;20044;-74
2023/12/28 05:31:25;;;;;;;13.43;3.45;;;14.50;1.00;;;;;;5042750;28;20397;-74
2023/12/28 05:33:50;;;;;;;13.43;3.78;;;15.40;1.00;;;;;;5026362;28;20090;-73
2023/12/28 05:36:16;;;;;;;11.10;2.85;;;15.10;1.00;;;;;;5009012;28;20044;-76
2023/12/28 05:38:42;;;;;;;12.02;3.60;;;15.10;1.00;;;;;;5047623;28;20064;-73
2023/12/28 05:41:13;;;;;;;12.55;3.60;;;14.70;1.00;;;;;;5040362;28;20060;-74
2023/12/28 05:43:39;;;;;;;11.93;3.67;;;14.80;1.00;;;;;;5057502;28;20131;-71
2023/12/28 05:46:05;;;;;;;14.68;3.17;;;14.70;1.00;;;;;;5043420;28;20184;-73
2023/12/28 05:48:30;;;;;;;13.68;3.85;;;14.90;1.00;;;;;;5044276;28;20045;-73
2023/12/28 05:50:59;;;;;;;12.68;3.28;;;15.20;1.00;;;;;;5024631;28;20072;-71
2023/12/28 05:53:27;;;;;;;15.20;3.25;;;15.20;1.00;;;;;;5047259;28;20051;-74
2023/12/28 05:55:53;;;;;;;12.73;3.63;;;14.90;1.00;;;;;;5041251;28;20562;-75
2023/12/28 05:58:19;;;;;;;13.05;3.60;;;14.90;1.00;;;;;;5041880;28;20033;-71
2023/12/28 06:00:47;;;;;;;17.27;3.70;;;15.20;1.00;;;;;;5047198;28;20370;-75
2023/12/28 06:03:13;;;;;;;9.45;3.10;;;15.20;1.00;;;;;;5016788;28;20037;-75
2023/12/28 06:05:39;;;;;;;12.27;3.47;;;15.10;1.00;;;;;;5032186;28;20048;-72
2023/12/28 06:08:05;;;;;;;13.55;3.40;;;15.10;1.00;;;;;;5030615;28;20128;-73
2023/12/28 06:10:30;;;;;;;13.30;3.30;;;14.80;1.00;;;;;;5017358;28;20052;-75
2023/12/28 06:12:56;;;;;;;11.50;3.95;;;14.80;1.00;;;;;;5014580;28;20029;-75
2023/12/28 06:15:22;;;;;;;13.55;4.13;;;14.90;1.00;;;;;;5057093;28;20057;-75
2023/12/28 06:17:47;;;;;;;10.52;3.50;;;15.00;1.00;;;;;;5043181;28;20067;-77
2023/12/28 06:20:13;;;;;;;15.32;4.00;;;15.40;1.00;;;;;;5030060;28;20037;-76
2023/12/28 06:22:39;;;;;;;12.57;3.60;;;15.30;1.00;;;;;;5043667;28;20044;-73
2023/12/28 06:25:06;;;;;;;13.82;3.75;;;15.40;1.00;;;;;;5057568;28;20053;-73
2023/12/28 06:27:32;;;;;;;14.50;4.03;;;15.00;1.00;;;;;;5045057;28;20041;-73
2023/12/28 06:29:58;;;;;;;10.77;3.40;;;15.00;1.00;;;;;;5077627;28;20044;-71
2023/12/28 06:32:24;;;;;;;10.57;3.58;;;15.30;1.00;;;;;;5045054;28;20094;-76
2023/12/28 06:34:50;;;;;;;13.20;3.30;;;14.70;1.00;;;;;;5075284;28;20065;-73
2023/12/28 06:37:16;;;;;;;10.95;3.10;;;14.80;1.00;;;;;;5064505;28;20071;-75
2023/12/28 06:39:42;;;;;;;11.65;3.08;;;14.80;1.00;;;;;;5025519;28;20041;-72
2023/12/28 06:42:07;;;;;;;14.23;3.90;;;14.70;1.00;;;;;;5043392;28;20707;-75
2023/12/28 06:44:33;;;;;;;13.73;3.55;;;14.90;1.00;;;;;;5029769;28;20068;-72
2023/12/28 06:46:59;;;;;;;12.98;3.42;;;15.20;1.00;;;;;;5027251;28;20155;-73
2023/12/28 06:49:25;;;;;;;15.23;3.58;;;14.70;1.00;;;;;;5043161;28;20075;-76
2023/12/28 06:51:51;;;;;;;17.17;4.13;;;15.40;1.00;;;;;;5043747;28;20039;-73
2023/12/28 06:54:17;;;;;;;14.18;3.30;;;15.20;1.00;;;;;;5027165;28;20482;-76
2023/12/28 06:56:42;;;;;;;13.93;3.53;;;15.30;1.00;;;;;;5043119;28;20033;-78
2023/12/28 06:59:11;;;;;;;17.60;4.00;;;15.10;1.00;;;;;;5041920;28;20764;-73
2023/12/28 07:01:38;;;;;;;12.00;3.42;;;15.40;1.00;;;;;;5024634;28;20440;-73
2023/12/28 07:04:04;;;;;;;19.10;3.80;;;15.40;1.00;;;;;;5045247;28;20036;-73
2023/12/28 07:06:30;;;;;;;13.02;3.90;;;14.70;1.00;;;;;;5043610;28;20041;-73
2023/12/28 07:08:55;;;;;;;13.75;3.40;;;14.70;1.00;;;;;;5042373;28;20037;-73
2023/12/28 07:11:22;;;;;;;14.05;3.92;;;14.90;1.00;;;;;;5042982;28;20040;-74
2023/12/28 07:13:47;;;;;;;14.90;4.13;;;15.40;1.00;;;;;;5048986;28;20099;-74
2023/12/28 07:16:13;;;;;;;13.32;3.60;;;14.90;1.00;;;;;;5059472;28;20057;-76
2023/12/28 07:18:39;;;;;;;11.02;2.95;;;14.60;1.00;;;;;;5041674;28;20071;-74
2023/12/28 07:21:06;;;;;;;13.57;3.65;;;15.00;1.00;;;;;;5056324;28;20420;-77
2023/12/28 07:23:31;;;;;;;14.25;4.05;;;14.70;1.00;;;;;;5043009;28;20077;-72
2023/12/28 07:25:57;;;;;;;17.48;4.28;;;15.40;1.00;;;;;;5043489;28;20442;-74
2023/12/28 07:28:23;;;;;;;14.80;3.55;;;14.70;1.00;;;;;;5046996;28;21210;-73
2023/12/28 07:30:49;;;;;;;17.02;4.38;;;15.00;1.00;;;;;;5073184;28;20044;-74
2023/12/28 07:33:14;;;;;;;16.70;3.92;;;15.40;1.00;;;;;;5044813;28;20500;-74
2023/12/28 07:35:43;;;;;;;16.20;4.20;;;14.70;1.00;;;;;;5044660;28;20045;-74
2023/12/28 07:38:09;;;;;;;17.42;5.22;;;15.20;1.00;;;;;;5043838;28;20045;-72
2023/12/28 07:40:34;;;;;;;19.27;4.57;;;15.20;1.00;;;;;;5043607;28;20041;-73
2023/12/28 07:43:01;;;;;;;15.27;3.72;;;15.50;1.00;;;;;;5044194;28;20045;-76
2023/12/28 07:45:26;;;;;;;20.35;4.82;;;15.50;1.00;;;;;;5073977;28;20137;-76
2023/12/28 07:47:52;;;;;;;15.20;3.80;;;15.50;1.00;;;;;;5010225;28;20132;-75
2023/12/28 07:50:19;;;;;;;17.23;3.88;;;14.80;1.00;;;;;;5040885;28;20072;-74
2023/12/28 07:52:46;;;;;;;18.05;3.85;;;15.00;1.00;;;;;;5042882;28;20103;-72
2023/12/28 07:55:12;;;;;;;17.35;4.68;;;14.80;1.00;;;;;;5027249;28;20397;-75
2023/12/28 07:57:38;;;;;;;17.52;3.75;;;15.00;1.00;;;;;;5054845;28;20059;-78
2023/12/28 08:00:05;;;;;;;19.60;4.80;;;14.80;1.00;;;;;;5057096;28;20029;-79
2023/12/28 08:02:31;;;;;;;15.93;5.07;;;15.50;1.00;;;;;;5044459;28;20116;-76
2023/12/28 08:04:57;;;;;;;22.23;4.30;;;15.50;1.00;;;;;;5027940;28;20104;-75
2023/12/28 08:07:22;;;;;;;17.20;3.90;;;15.30;1.00;;;;;;5054342;28;20032;-74
2023/12/28 08:09:48;;;;;;;19.13;4.95;;;15.40;1.00;;;;;;5026606;28;20041;-74
2023/12/28 08:12:14;;;;;;;18.25;4.70;;;15.30;1.00;;;;;;5042885;28;20033;-76
2023/12/28 08:14:39;;;;;;;21.35;4.65;;;15.30;99.90;;;;;;5042270;28;20745;-74
2023/12/28 08:17:05;;;;;;;16.08;4.45;;;15.20;99.90;;;;;;5058483;28;20041;-74
2023/12/28 08:19:32;;;;;;;19.83;4.65;;;15.50;99.90;;;;;;5043963;28;20040;-72
2023/12/28 08:21:57;;;;;;;16.30;4.35;;;15.10;99.90;;;;;;5044178;28;20393;-74
2023/12/28 08:24:23;;;;;;;23.48;5.30;;;15.00;99.90;;;;;;5022274;28;20051;-77
2023/12/28 08:26:49;;;;;;;15.63;3.78;;;15.60;99.90;;;;;;5073405;28;20155;-74
2023/12/28 08:29:14;;;;;;;18.73;5.03;;;15.00;99.90;;;;;;5054284;28;20048;-77
2023/12/28 08:31:40;;;;;;;19.30;4.22;;;15.20;99.90;;;;;;5070253;28;20053;-77
2023/12/28 08:34:06;;;;;;;22.10;5.35;;;15.00;99.90;;;;;;5061938;28;20071;-80
2023/12/28 08:36:32;;;;;;;21.63;5.78;;;15.20;99.90;;;;;;5059117;28;20491;-79
2023/12/28 08:38:57;;;;;;;21.50;5.03;;;15.30;99.90;;;;;;5041710;28;20389;-84
2023/12/28 08:41:24;;;;;;;18.42;4.70;;;15.30;99.90;;;;;;5013988;28;20045;-82
2023/12/28 08:43:50;;;;;;;16.63;4.22;;;15.20;99.90;;;;;;5057235;28;20099;-78
2023/12/28 08:46:16;;;;;;;24.80;5.28;;;15.60;99.90;;;;;;5031910;28;20033;-83
2023/12/28 08:48:45;;;;;;;19.08;4.45;;;14.90;99.90;;;;;;5032239;28;20036;-78
2023/12/28 08:51:11;;;;;;;16.73;4.65;;;15.40;99.90;;;;;;5022136;28;20041;-78
2023/12/28 08:53:37;;;;;;;18.58;4.85;;;15.60;99.90;;;;;;5078863;28;20086;-80
2023/12/28 08:56:12;;;;;;;24.52;5.10;;;15.20;1.00;;;;;;5049342;28;20119;-81
2023/12/28 08:58:38;;;;;;;20.88;4.70;;;15.40;99.90;;;;;;5044525;28;20046;-78
2023/12/28 09:01:04;;;;;;;18.00;4.50;;;15.30;99.90;;;;;;5031536;28;20091;-77
2023/12/28 09:03:29;;;;;;;17.25;4.15;;;15.00;99.90;;;;;;5034868;28;20120;-78
2023/12/28 09:05:55;;;;;;;19.42;4.80;;;15.40;1.00;;;;;;5042131;28;20904;-79
2023/12/28 09:08:21;;;;;;;20.65;4.30;;;15.30;99.90;;;;;;5060092;28;20421;-75
2023/12/28 09:10:46;;;;;;;22.45;4.95;;;15.10;99.90;;;;;;5029057;28;20569;-79
2023/12/28 09:13:19;;;;;;;23.17;5.63;;;15.40;99.90;;;;;;5045267;28;20086;-74
2023/12/28 09:15:45;;;;;;;20.83;4.90;;;15.00;99.90;;;;;;5054625;28;20147;-82
2023/12/28 09:18:11;;;;;;;19.73;5.07;;;15.70;99.90;;;;;;5074087;28;20404;-76
2023/12/28 09:20:37;;;;;;;20.20;5.50;;;15.20;99.90;;;;;;5054048;28;20045;-73
2023/12/28 09:23:03;;;;;;;19.00;5.40;;;15.60;99.90;;;;;;5044874;28;20036;-78
2023/12/28 09:25:28;;;;;;;23.90;4.82;;;15.10;99.90;;;;;;5042079;28;20094;-75
2023/12/28 09:27:54;;;;;;;22.25;5.32;;;15.50;99.90;;;;;;5038387;28;20041;-78
2023/12/28 09:30:19;;;;;;;28.42;6.20;;;15.10;99.90;;;;;;5033498;28;20083;-77
2023/12/28 09:32:45;;;;;;;29.70;5.70;;;15.40;99.90;;;;;;5036323;28;21896;-77
2023/12/28 09:35:11;;;;;;;16.95;4.13;;;15.20;99.90;;;;;;5041729;28;20144;-79
2023/12/28 09:37:36;;;;;;;17.67;4.97;;;15.70;99.90;;;;;;5072643;28;20041;-75
2023/12/28 09:40:03;;;;;;;19.85;5.43;;;15.40;1.00;;;;;;5041267;28;20048;-78
2023/12/28 09:42:51;;;;;;;20.00;4.40;;;15.30;99.90;;;;;;5046887;28;20051;-80
2023/12/28 09:45:17;;;;;;;17.65;4.60;;;16.10;99.90;;;;;;5068570;28;20048;-76
2023/12/28 09:47:43;;;;;;;23.23;5.00;;;16.10;99.90;;;;;;5040350;28;20036;-79
2023/12/28 09:50:12;;;;;;;21.80;5.05;;;15.70;99.90;;;;;;5008858;28;20045;-77
2023/12/28 09:52:38;;;;;;;25.48;6.45;;;15.70;99.90;;;;;;5081362;28;20052;-77
2023/12/28 09:55:04;;;;;;;20.33;4.72;;;15.70;1.00;;;;;;5028071;28;20033;-75
2023/12/28 09:57:30;;;;;;;21.70;4.82;;;15.40;1.00;;;;;;5050764;28;20063;-77
2023/12/28 09:59:56;;;;;;;18.98;4.40;;;15.60;99.90;;;;;;5035936;28;20040;-78
2023/12/28 10:02:21;;;;;;;21.00;5.13;;;15.70;99.90;;;;;;5056123;28;20111;-74
2023/12/28 10:04:47;;;;;;;19.83;5.07;;;15.80;99.90;;;;;;5049972;28;20127;-75
2023/12/28 10:07:13;;;;;;;20.33;4.35;;;15.30;99.90;;;;;;5050891;28;20037;-78
2023/12/28 10:09:38;;;;;;;19.70;4.43;;;15.90;1.00;;;;;;5034362;28;20041;-72
2023/12/28 10:12:05;;;;;;;20.70;4.22;;;15.40;1.00;;;;;;5048107;28;20036;-77
2023/12/28 10:14:31;;;;;;;19.83;4.85;;;15.20;1.00;;;;;;5032754;28;20050;-77
2023/12/28 10:16:57;;;;;;;22.67;4.47;;;15.30;1.00;;;;;;5049649;28;20106;-74
2023/12/28 10:19:23;;;;;;;20.75;5.65;;;15.50;1.00;;;;;;5080542;28;20033;-74
2023/12/28 10:21:49;;;;;;;24.13;5.43;;;15.30;1.00;;;;;;5030661;28;20064;-75
2023/12/28 10:24:15;;;;;;;21.33;4.80;;;15.30;1.00;;;;;;5033878;28;20037;-77
2023/12/28 10:26:40;;;;;;;19.05;4.10;;;15.80;1.00;;;;;;5049783;28;20043;-75
2023/12/28 10:29:06;;;;;;;19.25;3.90;;;15.70;1.00;;;;;;5048119;28;20029;-76
2023/12/28 10:31:32;;;;;;;18.25;4.35;;;15.60;99.90;;;;;;5038231;28;20041;-76
2023/12/28 10:34:02;;;;;;;21.65;4.85;;;15.30;99.90;;;;;;5048853;28;20049;-78
2023/12/28 10:36:28;;;;;;;18.52;4.70;;;15.80;1.00;;;;;;5028320;28;20530;-75
2023/12/28 10:38:56;;;;;;;24.58;4.78;;;15.80;99.90;;;;;;5077264;28;20037;-79
2023/12/28 10:41:22;;;;;;;26.73;6.13;;;15.30;99.90;;;;;;5035129;28;20182;-76
2023/12/28 10:44:02;;;;;;;21.05;4.47;;;15.80;99.90;;;;;;5013356;28;20111;-78
2023/12/28 10:46:31;;;;;;;14.18;4.03;;;15.50;99.90;;;;;;5046980;28;20060;-75
2023/12/28 10:49:09;;;;;;;20.20;4.07;;;15.60;99.90;;;;;;5032976;28;20109;-74
2023/12/28 10:51:39;;;;;;;18.60;4.72;;;16.00;99.90;;;;;;5048775;28;20507;-75
2023/12/28 10:54:14;;;;;;;18.48;4.75;;;15.70;99.90;;;;;;5047611;28;20040;-79
2023/12/28 10:56:59;;;;;;;27.15;5.55;;;15.90;99.90;;;;;;5034294;28;20489;-74
2023/12/28 10:59:49;;;;;;;19.05;4.88;;;15.90;99.90;;;;;;5043283;28;20051;-74
2023/12/28 11:02:21;;;;;;;22.05;5.03;;;15.50;99.90;;;;;;5048795;28;20048;-73
2023/12/28 11:04:49;;;;;;;17.27;4.65;;;15.80;99.90;;;;;;5049545;28;20041;-77
2023/12/28 11:07:18;;;;;;;18.40;4.13;;;15.50;99.90;;;;;;5033729;28;20040;-73
2023/12/28 11:09:44;;;;;;;19.88;4.78;;;16.00;99.90;;;;;;5050617;28;20099;-77
2023/12/28 11:12:10;;;;;;;27.38;4.72;;;15.80;99.90;;;;;;5049663;28;20044;-73
2023/12/28 11:14:42;;;;;;;20.63;4.50;;;15.80;99.90;;;;;;5029774;28;20040;-76
2023/12/28 11:17:10;;;;;;;17.70;4.47;;;15.70;99.90;;;;;;5043987;28;20444;-77
2023/12/28 11:19:37;;;;;;;24.63;5.57;;;15.30;99.90;;;;;;5070739;28;20370;-74
2023/12/28 11:22:04;;;;;;;49.50;15.25;;;15.30;99.90;;;;;;5047108;28;20366;-75
2023/12/28 11:24:31;;;;;;;27.80;12.48;;;15.30;99.90;;;;;;5031600;28;20052;-80
2023/12/28 11:26:57;;;;;;;14.95;3.88;;;16.10;99.90;;;;;;5033838;28;20547;-74
2023/12/28 11:29:24;;;;;;;18.55;4.18;;;15.30;99.90;;;;;;5045968;28;20040;-76
2023/12/28 11:31:58;;;;;;;17.35;5.20;;;15.90;99.90;;;;;;5050386;28;20037;-74
2023/12/28 11:34:33;;;;;;;20.60;5.18;;;16.20;99.90;;;;;;5047167;28;20041;-79
2023/12/28 11:37:03;;;;;;;26.77;8.65;;;15.50;99.90;;;;;;5029708;28;21562;-77
2023/12/28 11:39:33;;;;;;;22.05;5.30;;;15.60;99.90;;;;;;5043317;28;20064;-77
2023/12/28 11:42:05;;;;;;;25.20;4.93;;;15.60;99.90;;;;;;5045319;28;20059;-74
2023/12/28 11:44:37;;;;;;;20.83;4.57;;;15.90;99.90;;;;;;5044129;28;20041;-80
2023/12/28 11:47:21;;;;;;;17.67;4.32;;;15.70;99.90;;;;;;5042239;28;20044;-72
2023/12/28 11:49:48;;;;;;;16.83;4.47;;;16.00;1.00;;;;;;5041740;28;20095;-77
2023/12/28 11:52:26;;;;;;;24.13;5.57;;;15.60;1.00;;;;;;5025167;28;20473;-74
2023/12/28 11:54:52;;;;;;;17.90;4.80;;;15.00;1.00;;;;;;5036032;28;20041;-78
2023/12/28 11:57:17;;;;;;;19.42;4.88;;;14.90;1.00;;;;;;5027220;28;20045;-75
2023/12/28 11:59:43;;;;;;;27.58;5.32;;;15.70;1.00;;;;;;5072231;28;20056;-73
2023/12/28 12:02:11;;;;;;;22.88;4.80;;;15.00;1.00;;;;;;4996163;28;20373;-81
2023/12/28 12:04:37;;;;;;;15.10;3.85;;;15.30;1.00;;;;;;5042657;28;20045;-76
2023/12/28 12:07:06;;;;;;;17.50;4.78;;;15.00;1.00;;;;;;5040750;28;20091;-72
2023/12/28 12:09:34;;;;;;;28.02;5.70;;;15.90;1.00;;;;;;5024722;28;20539;-73
2023/12/28 12:12:04;;;;;;;20.88;5.25;;;15.00;1.00;;;;;;5042549;28;20482;-78
2023/12/28 12:14:30;;;;;;;23.40;5.43;;;15.80;1.00;;;;;;5037698;28;20103;-76
2023/12/28 12:16:58;;;;;;;22.13;5.07;;;15.80;1.00;;;;;;5027673;28;20825;-76
2023/12/28 12:19:25;;;;;;;20.98;5.30;;;15.00;1.00;;;;;;5039346;28;20183;-77
2023/12/28 12:21:55;;;;;;;22.30;5.68;;;15.00;1.00;;;;;;5041795;28;20042;-74
2023/12/28 12:24:22;;;;;;;23.02;5.65;;;15.70;1.00;;;;;;5042474;28;20469;-75
2023/12/28 12:26:51;;;;;;;22.05;5.60;;;14.90;1.00;;;;;;5059091;28;20037;-74
2023/12/28 12:29:17;;;;;;;20.65;5.28;;;15.00;1.00;;;;;;5055612;28;20128;-76
2023/12/28 12:31:46;;;;;;;25.13;4.93;;;15.30;1.00;;;;;;5041303;28;20107;-74
2023/12/28 12:34:15;;;;;;;24.45;5.30;;;15.00;1.00;;;;;;5067777;28;20394;-76
2023/12/28 12:36:41;;;;;;;26.25;6.03;;;15.70;1.00;;;;;;5023719;28;20041;-74
2023/12/28 12:39:07;;;;;;;22.85;5.65;;;15.30;1.00;;;;;;5043960;28;20052;-73
2023/12/28 12:41:36;;;;;;;25.92;6.28;;;14.80;1.00;;;;;;5043398;28;20041;-72